sensor_id;sensor_type;location;lat;lon;timestamp;P1;durP1;ratioP1;P2;durP2;ratioP2
33654;SDS011;19997;51.274;22.506;2022-12-16T00:02:26;75.18;;;25.55;;
33654;SDS011;19997;51.274;22.506;2022-12-16T00:04:55;78.32;;;27.92;;
33654;SDS011;19997;51.274;22.506;2022-12-16T00:07:23;77.90;;;29.40;;
33654;SDS011;19997;51.274;22.506;2022-12-16T00:09:50;90.05;;;28.67;;
33654;SDS011;19997;51.274;22.506;2022-12-16T00:12:17;81.55;;;27.02;;
33654;SDS011;19997;51.274;22.506;2022-12-16T00:14:44;95.93;;;28.98;;
33654;SDS011;19997;51.274;22.506;2022-12-16T00:17:11;83.40;;;29.42;;
33654;SDS011;19997;51.274;22.506;2022-12-16T00:19:38;82.82;;;28.42;;
33654;SDS011;19997;51.274;22.506;2022-12-16T00:22:06;84.43;;;27.17;;
33654;SDS011;19997;51.274;22.506;2022-12-16T00:24:33;80.40;;;28.13;;
33654;SDS011;19997;51.274;22.506;2022-12-16T00:27:01;86.43;;;26.30;;
33654;SDS011;19997;51.274;22.506;2022-12-16T00:29:28;71.20;;;23.42;;
33654;SDS011;19997;51.274;22.506;2022-12-16T00:31:55;80.20;;;23.88;;
33654;SDS011;19997;51.274;22.506;2022-12-16T00:34:22;76.13;;;24.27;;
33654;SDS011;19997;51.274;22.506;2022-12-16T00:36:49;71.50;;;26.15;;
33654;SDS011;19997;51.274;22.506;2022-12-16T00:39:21;73.40;;;24.55;;
33654;SDS011;19997;51.274;22.506;2022-12-16T00:41:48;76.80;;;25.00;;
33654;SDS011;19997;51.274;22.506;2022-12-16T00:44:15;66.63;;;23.35;;
33654;SDS011;19997;51.274;22.506;2022-12-16T00:46:42;76.57;;;25.23;;
33654;SDS011;19997;51.274;22.506;2022-12-16T00:49:09;65.88;;;23.48;;
33654;SDS011;19997;51.274;22.506;2022-12-16T00:51:36;72.20;;;22.50;;
33654;SDS011;19997;51.274;22.506;2022-12-16T00:54:03;71.22;;;24.05;;
33654;SDS011;19997;51.274;22.506;2022-12-16T00:56:32;64.57;;;21.40;;
33654;SDS011;19997;51.274;22.506;2022-12-16T00:58:59;62.00;;;21.77;;
33654;SDS011;19997;51.274;22.506;2022-12-16T01:01:26;63.55;;;23.35;;
33654;SDS011;19997;51.274;22.506;2022-12-16T01:03:54;57.38;;;22.02;;
33654;SDS011;19997;51.274;22.506;2022-12-16T01:06:22;58.65;;;22.80;;
33654;SDS011;19997;51.274;22.506;2022-12-16T01:08:49;55.47;;;22.05;;
33654;SDS011;19997;51.274;22.506;2022-12-16T01:11:16;72.80;;;22.88;;
33654;SDS011;19997;51.274;22.506;2022-12-16T01:13:48;72.53;;;23.08;;
33654;SDS011;19997;51.274;22.506;2022-12-16T01:16:16;68.35;;;23.75;;
33654;SDS011;19997;51.274;22.506;2022-12-16T01:18:43;74.78;;;25.63;;
33654;SDS011;19997;51.274;22.506;2022-12-16T01:21:11;81.65;;;25.95;;
33654;SDS011;19997;51.274;22.506;2022-12-16T01:23:39;68.95;;;24.23;;
33654;SDS011;19997;51.274;22.506;2022-12-16T01:26:08;82.00;;;27.08;;
33654;SDS011;19997;51.274;22.506;2022-12-16T01:28:40;81.05;;;25.65;;
33654;SDS011;19997;51.274;22.506;2022-12-16T01:31:08;70.18;;;23.85;;
33654;SDS011;19997;51.274;22.506;2022-12-16T01:33:36;88.30;;;26.23;;
33654;SDS011;19997;51.274;22.506;2022-12-16T01:36:04;75.45;;;25.23;;
33654;SDS011;19997;51.274;22.506;2022-12-16T01:38:33;73.05;;;26.08;;
33654;SDS011;19997;51.274;22.506;2022-12-16T01:41:01;72.32;;;24.30;;
33654;SDS011;19997;51.274;22.506;2022-12-16T01:43:29;77.07;;;25.13;;
33654;SDS011;19997;51.274;22.506;2022-12-16T01:45:59;77.27;;;25.57;;
33654;SDS011;19997;51.274;22.506;2022-12-16T01:48:36;77.88;;;25.33;;
33654;SDS011;19997;51.274;22.506;2022-12-16T01:51:08;76.03;;;25.52;;
33654;SDS011;19997;51.274;22.506;2022-12-16T01:53:39;66.45;;;23.67;;
33654;SDS011;19997;51.274;22.506;2022-12-16T01:56:09;73.22;;;24.48;;
33654;SDS011;19997;51.274;22.506;2022-12-16T01:58:40;72.10;;;22.17;;
33654;SDS011;19997;51.274;22.506;2022-12-16T02:01:09;66.30;;;21.00;;
33654;SDS011;19997;51.274;22.506;2022-12-16T02:03:38;65.93;;;24.38;;
33654;SDS011;19997;51.274;22.506;2022-12-16T02:06:06;62.97;;;21.85;;
33654;SDS011;19997;51.274;22.506;2022-12-16T02:08:33;63.13;;;21.98;;
33654;SDS011;19997;51.274;22.506;2022-12-16T02:11:05;60.15;;;21.98;;
33654;SDS011;19997;51.274;22.506;2022-12-16T02:13:45;59.83;;;22.33;;
33654;SDS011;19997;51.274;22.506;2022-12-16T02:16:28;67.53;;;21.75;;
33654;SDS011;19997;51.274;22.506;2022-12-16T02:19:13;60.50;;;22.42;;
33654;SDS011;19997;51.274;22.506;2022-12-16T02:22:14;64.32;;;21.13;;
33654;SDS011;19997;51.274;22.506;2022-12-16T02:25:07;63.22;;;22.92;;
33654;SDS011;19997;51.274;22.506;2022-12-16T02:27:52;63.33;;;21.58;;
33654;SDS011;19997;51.274;22.506;2022-12-16T02:36:32;53.75;;;20.27;;
33654;SDS011;19997;51.274;22.506;2022-12-16T02:39:16;60.88;;;20.35;;
33654;SDS011;19997;51.274;22.506;2022-12-16T02:41:49;55.13;;;19.60;;
33654;SDS011;19997;51.274;22.506;2022-12-16T02:44:19;63.20;;;20.83;;
33654;SDS011;19997;51.274;22.506;2022-12-16T02:46:51;62.13;;;21.05;;
33654;SDS011;19997;51.274;22.506;2022-12-16T02:49:40;55.50;;;20.10;;
33654;SDS011;19997;51.274;22.506;2022-12-16T02:52:15;63.22;;;20.48;;
33654;SDS011;19997;51.274;22.506;2022-12-16T02:54:45;70.72;;;22.45;;
33654;SDS011;19997;51.274;22.506;2022-12-16T02:57:40;62.83;;;20.15;;
33654;SDS011;19997;51.274;22.506;2022-12-16T03:00:17;58.38;;;19.27;;
33654;SDS011;19997;51.274;22.506;2022-12-16T03:02:46;65.07;;;20.93;;
33654;SDS011;19997;51.274;22.506;2022-12-16T03:05:21;57.85;;;20.50;;
33654;SDS011;19997;51.274;22.506;2022-12-16T03:07:53;62.00;;;21.70;;
33654;SDS011;19997;51.274;22.506;2022-12-16T03:10:25;64.68;;;20.50;;
33654;SDS011;19997;51.274;22.506;2022-12-16T03:12:55;57.47;;;20.15;;
33654;SDS011;19997;51.274;22.506;2022-12-16T03:15:25;65.00;;;20.83;;
33654;SDS011;19997;51.274;22.506;2022-12-16T03:17:56;62.40;;;21.10;;
33654;SDS011;19997;51.274;22.506;2022-12-16T03:20:26;61.42;;;20.83;;
33654;SDS011;19997;51.274;22.506;2022-12-16T03:23:00;58.25;;;20.55;;
33654;SDS011;19997;51.274;22.506;2022-12-16T03:25:32;56.97;;;20.50;;
33654;SDS011;19997;51.274;22.506;2022-12-16T03:28:02;63.80;;;20.73;;
33654;SDS011;19997;51.274;22.506;2022-12-16T03:30:35;59.35;;;21.50;;
33654;SDS011;19997;51.274;22.506;2022-12-16T03:33:08;53.63;;;19.38;;
33654;SDS011;19997;51.274;22.506;2022-12-16T03:35:40;61.92;;;20.50;;
33654;SDS011;19997;51.274;22.506;2022-12-16T03:38:14;58.85;;;22.88;;
33654;SDS011;19997;51.274;22.506;2022-12-16T03:40:41;58.28;;;20.30;;
33654;SDS011;19997;51.274;22.506;2022-12-16T03:43:09;54.67;;;19.73;;
33654;SDS011;19997;51.274;22.506;2022-12-16T03:45:39;54.08;;;21.67;;
33654;SDS011;19997;51.274;22.506;2022-12-16T03:48:09;52.13;;;19.50;;
33654;SDS011;19997;51.274;22.506;2022-12-16T03:50:38;51.80;;;18.77;;
33654;SDS011;19997;51.274;22.506;2022-12-16T03:53:06;59.15;;;21.15;;
33654;SDS011;19997;51.274;22.506;2022-12-16T03:55:35;57.30;;;21.95;;
33654;SDS011;19997;51.274;22.506;2022-12-16T03:58:02;50.97;;;19.17;;
33654;SDS011;19997;51.274;22.506;2022-12-16T04:00:29;59.25;;;19.90;;
33654;SDS011;19997;51.274;22.506;2022-12-16T04:02:56;62.47;;;20.13;;
33654;SDS011;19997;51.274;22.506;2022-12-16T04:05:23;56.60;;;19.00;;
33654;SDS011;19997;51.274;22.506;2022-12-16T04:07:50;54.55;;;19.45;;
33654;SDS011;19997;51.274;22.506;2022-12-16T04:10:17;64.80;;;22.42;;
33654;SDS011;19997;51.274;22.506;2022-12-16T04:13:08;54.75;;;19.30;;
33654;SDS011;19997;51.274;22.506;2022-12-16T04:15:53;66.82;;;23.33;;
33654;SDS011;19997;51.274;22.506;2022-12-16T04:18:38;64.13;;;21.30;;
33654;SDS011;19997;51.274;22.506;2022-12-16T04:21:23;63.75;;;22.73;;
33654;SDS011;19997;51.274;22.506;2022-12-16T04:24:08;63.65;;;21.13;;
33654;SDS011;19997;51.274;22.506;2022-12-16T04:26:45;69.85;;;23.63;;
33654;SDS011;19997;51.274;22.506;2022-12-16T04:29:31;57.85;;;20.70;;
33654;SDS011;19997;51.274;22.506;2022-12-16T04:31:58;69.57;;;22.67;;
33654;SDS011;19997;51.274;22.506;2022-12-16T04:34:26;56.58;;;20.17;;
33654;SDS011;19997;51.274;22.506;2022-12-16T04:36:53;63.78;;;21.77;;
33654;SDS011;19997;51.274;22.506;2022-12-16T04:39:39;55.25;;;19.88;;
33654;SDS011;19997;51.274;22.506;2022-12-16T04:42:23;61.03;;;21.38;;
33654;SDS011;19997;51.274;22.506;2022-12-16T04:45:09;56.88;;;19.35;;
33654;SDS011;19997;51.274;22.506;2022-12-16T04:47:54;61.50;;;20.80;;
33654;SDS011;19997;51.274;22.506;2022-12-16T04:50:38;63.67;;;19.98;;
33654;SDS011;19997;51.274;22.506;2022-12-16T04:53:23;56.13;;;18.08;;
33654;SDS011;19997;51.274;22.506;2022-12-16T04:56:08;54.35;;;18.50;;
33654;SDS011;19997;51.274;22.506;2022-12-16T04:58:53;57.83;;;19.98;;
33654;SDS011;19997;51.274;22.506;2022-12-16T05:01:39;52.90;;;20.23;;
33654;SDS011;19997;51.274;22.506;2022-12-16T05:04:23;55.13;;;18.48;;
33654;SDS011;19997;51.274;22.506;2022-12-16T05:07:08;50.42;;;18.77;;
33654;SDS011;19997;51.274;22.506;2022-12-16T05:09:52;58.83;;;20.45;;
33654;SDS011;19997;51.274;22.506;2022-12-16T05:12:37;52.13;;;19.08;;
33654;SDS011;19997;51.274;22.506;2022-12-16T05:15:21;56.28;;;19.73;;
33654;SDS011;19997;51.274;22.506;2022-12-16T05:18:08;47.60;;;19.80;;
33654;SDS011;19997;51.274;22.506;2022-12-16T05:20:53;62.35;;;22.52;;
33654;SDS011;19997;51.274;22.506;2022-12-16T05:23:42;47.40;;;18.48;;
33654;SDS011;19997;51.274;22.506;2022-12-16T05:26:27;56.50;;;19.88;;
33654;SDS011;19997;51.274;22.506;2022-12-16T05:29:11;53.28;;;18.92;;
33654;SDS011;19997;51.274;22.506;2022-12-16T05:31:56;55.97;;;18.83;;
33654;SDS011;19997;51.274;22.506;2022-12-16T05:34:42;49.95;;;19.77;;
33654;SDS011;19997;51.274;22.506;2022-12-16T05:37:31;47.80;;;17.98;;
33654;SDS011;19997;51.274;22.506;2022-12-16T05:40:16;56.58;;;19.33;;
33654;SDS011;19997;51.274;22.506;2022-12-16T05:43:00;43.20;;;17.90;;
33654;SDS011;19997;51.274;22.506;2022-12-16T05:45:45;48.78;;;17.38;;
33654;SDS011;19997;51.274;22.506;2022-12-16T05:48:29;58.75;;;18.77;;
33654;SDS011;19997;51.274;22.506;2022-12-16T05:51:15;52.92;;;18.02;;
33654;SDS011;19997;51.274;22.506;2022-12-16T05:53:59;50.00;;;17.20;;
33654;SDS011;19997;51.274;22.506;2022-12-16T05:56:44;53.08;;;19.02;;
33654;SDS011;19997;51.274;22.506;2022-12-16T05:59:31;54.38;;;18.17;;
33654;SDS011;19997;51.274;22.506;2022-12-16T06:02:16;52.08;;;19.02;;
33654;SDS011;19997;51.274;22.506;2022-12-16T06:05:03;46.28;;;18.58;;
33654;SDS011;19997;51.274;22.506;2022-12-16T06:07:50;49.67;;;17.02;;
33654;SDS011;19997;51.274;22.506;2022-12-16T06:10:36;48.95;;;16.90;;
33654;SDS011;19997;51.274;22.506;2022-12-16T06:13:20;59.15;;;18.38;;
33654;SDS011;19997;51.274;22.506;2022-12-16T06:16:05;56.03;;;17.77;;
33654;SDS011;19997;51.274;22.506;2022-12-16T06:21:39;50.30;;;17.35;;
33654;SDS011;19997;51.274;22.506;2022-12-16T06:24:26;50.10;;;18.08;;
33654;SDS011;19997;51.274;22.506;2022-12-16T06:27:10;46.72;;;16.98;;
33654;SDS011;19997;51.274;22.506;2022-12-16T06:29:54;45.45;;;17.50;;
33654;SDS011;19997;51.274;22.506;2022-12-16T06:32:38;45.70;;;16.23;;
33654;SDS011;19997;51.274;22.506;2022-12-16T06:35:24;41.58;;;16.60;;
33654;SDS011;19997;51.274;22.506;2022-12-16T06:38:09;45.65;;;17.98;;
33654;SDS011;19997;51.274;22.506;2022-12-16T06:40:55;52.47;;;17.50;;
33654;SDS011;19997;51.274;22.506;2022-12-16T06:43:40;50.03;;;18.25;;
33654;SDS011;19997;51.274;22.506;2022-12-16T06:46:27;41.22;;;16.48;;
33654;SDS011;19997;51.274;22.506;2022-12-16T06:49:11;47.55;;;17.73;;
33654;SDS011;19997;51.274;22.506;2022-12-16T06:51:55;39.17;;;15.55;;
33654;SDS011;19997;51.274;22.506;2022-12-16T06:54:40;46.28;;;16.17;;
33654;SDS011;19997;51.274;22.506;2022-12-16T06:57:26;41.53;;;17.00;;
33654;SDS011;19997;51.274;22.506;2022-12-16T07:00:11;42.30;;;15.82;;
33654;SDS011;19997;51.274;22.506;2022-12-16T07:02:55;46.22;;;16.35;;
33654;SDS011;19997;51.274;22.506;2022-12-16T07:05:40;43.42;;;15.85;;
33654;SDS011;19997;51.274;22.506;2022-12-16T07:08:24;43.90;;;16.80;;
33654;SDS011;19997;51.274;22.506;2022-12-16T07:11:09;40.78;;;15.95;;
33654;SDS011;19997;51.274;22.506;2022-12-16T07:13:55;50.78;;;17.63;;
33654;SDS011;19997;51.274;22.506;2022-12-16T07:16:39;46.78;;;17.27;;
33654;SDS011;19997;51.274;22.506;2022-12-16T07:19:24;46.30;;;17.38;;
33654;SDS011;19997;51.274;22.506;2022-12-16T07:22:08;43.97;;;16.00;;
33654;SDS011;19997;51.274;22.506;2022-12-16T07:24:53;47.20;;;17.13;;
33654;SDS011;19997;51.274;22.506;2022-12-16T07:27:37;53.58;;;17.20;;
33654;SDS011;19997;51.274;22.506;2022-12-16T07:30:23;46.65;;;17.27;;
33654;SDS011;19997;51.274;22.506;2022-12-16T07:33:07;41.83;;;15.02;;
33654;SDS011;19997;51.274;22.506;2022-12-16T07:35:52;43.67;;;16.42;;
33654;SDS011;19997;51.274;22.506;2022-12-16T07:38:36;45.55;;;16.52;;
33654;SDS011;19997;51.274;22.506;2022-12-16T07:41:21;46.95;;;14.77;;
33654;SDS011;19997;51.274;22.506;2022-12-16T07:44:05;43.30;;;15.63;;
33654;SDS011;19997;51.274;22.506;2022-12-16T07:46:51;42.83;;;15.68;;
33654;SDS011;19997;51.274;22.506;2022-12-16T07:49:36;46.58;;;16.23;;
33654;SDS011;19997;51.274;22.506;2022-12-16T07:52:20;45.90;;;16.15;;
33654;SDS011;19997;51.274;22.506;2022-12-16T07:55:05;41.92;;;15.85;;
33654;SDS011;19997;51.274;22.506;2022-12-16T07:57:50;45.95;;;15.27;;
33654;SDS011;19997;51.274;22.506;2022-12-16T08:00:35;46.42;;;15.15;;
33654;SDS011;19997;51.274;22.506;2022-12-16T08:03:20;40.75;;;15.48;;
33654;SDS011;19997;51.274;22.506;2022-12-16T08:06:05;41.00;;;15.90;;
33654;SDS011;19997;51.274;22.506;2022-12-16T08:08:50;43.55;;;14.45;;
33654;SDS011;19997;51.274;22.506;2022-12-16T08:11:34;37.75;;;14.23;;
33654;SDS011;19997;51.274;22.506;2022-12-16T08:14:19;37.22;;;15.55;;
33654;SDS011;19997;51.274;22.506;2022-12-16T08:17:03;44.10;;;15.05;;
33654;SDS011;19997;51.274;22.506;2022-12-16T08:19:49;40.17;;;15.82;;
33654;SDS011;19997;51.274;22.506;2022-12-16T08:22:34;40.38;;;16.27;;
33654;SDS011;19997;51.274;22.506;2022-12-16T08:25:18;37.85;;;14.48;;
33654;SDS011;19997;51.274;22.506;2022-12-16T08:28:02;34.88;;;13.05;;
33654;SDS011;19997;51.274;22.506;2022-12-16T08:30:50;30.85;;;11.68;;
33654;SDS011;19997;51.274;22.506;2022-12-16T08:33:37;38.20;;;14.68;;
33654;SDS011;19997;51.274;22.506;2022-12-16T08:36:23;38.80;;;14.73;;
33654;SDS011;19997;51.274;22.506;2022-12-16T08:39:13;32.22;;;12.15;;
33654;SDS011;19997;51.274;22.506;2022-12-16T08:41:57;35.83;;;13.88;;
33654;SDS011;19997;51.274;22.506;2022-12-16T08:44:42;30.75;;;13.32;;
33654;SDS011;19997;51.274;22.506;2022-12-16T08:47:26;37.55;;;13.75;;
33654;SDS011;19997;51.274;22.506;2022-12-16T08:50:11;37.60;;;13.82;;
33654;SDS011;19997;51.274;22.506;2022-12-16T08:52:57;31.67;;;12.70;;
33654;SDS011;19997;51.274;22.506;2022-12-16T08:55:41;34.13;;;13.32;;
33654;SDS011;19997;51.274;22.506;2022-12-16T08:58:26;34.25;;;13.35;;
33654;SDS011;19997;51.274;22.506;2022-12-16T09:01:11;34.55;;;13.95;;
33654;SDS011;19997;51.274;22.506;2022-12-16T09:03:55;33.53;;;12.43;;
33654;SDS011;19997;51.274;22.506;2022-12-16T09:06:39;32.55;;;12.90;;
33654;SDS011;19997;51.274;22.506;2022-12-16T09:09:25;34.22;;;12.30;;
33654;SDS011;19997;51.274;22.506;2022-12-16T09:12:13;34.22;;;13.23;;
33654;SDS011;19997;51.274;22.506;2022-12-16T09:15:02;30.13;;;13.10;;
33654;SDS011;19997;51.274;22.506;2022-12-16T09:17:52;31.13;;;13.30;;
33654;SDS011;19997;51.274;22.506;2022-12-16T09:20:37;28.75;;;12.23;;
33654;SDS011;19997;51.274;22.506;2022-12-16T09:23:22;28.92;;;12.20;;
33654;SDS011;19997;51.274;22.506;2022-12-16T09:26:07;33.15;;;12.90;;
33654;SDS011;19997;51.274;22.506;2022-12-16T09:28:53;35.78;;;13.38;;
33654;SDS011;19997;51.274;22.506;2022-12-16T09:31:38;31.70;;;12.27;;
33654;SDS011;19997;51.274;22.506;2022-12-16T09:34:22;35.42;;;12.43;;
33654;SDS011;19997;51.274;22.506;2022-12-16T09:37:07;30.33;;;14.10;;
33654;SDS011;19997;51.274;22.506;2022-12-16T09:39:51;28.52;;;12.70;;
33654;SDS011;19997;51.274;22.506;2022-12-16T09:42:39;28.45;;;12.60;;
33654;SDS011;19997;51.274;22.506;2022-12-16T09:45:32;27.92;;;11.10;;
33654;SDS011;19997;51.274;22.506;2022-12-16T09:48:27;34.38;;;13.30;;
33654;SDS011;19997;51.274;22.506;2022-12-16T09:51:17;29.08;;;12.10;;
33654;SDS011;19997;51.274;22.506;2022-12-16T09:54:03;23.95;;;11.45;;
33654;SDS011;19997;51.274;22.506;2022-12-16T09:56:48;27.90;;;11.80;;
33654;SDS011;19997;51.274;22.506;2022-12-16T09:59:35;29.20;;;11.00;;
33654;SDS011;19997;51.274;22.506;2022-12-16T10:05:09;32.38;;;12.43;;
33654;SDS011;19997;51.274;22.506;2022-12-16T10:08:08;34.40;;;12.43;;
33654;SDS011;19997;51.274;22.506;2022-12-16T10:11:03;33.35;;;12.52;;
33654;SDS011;19997;51.274;22.506;2022-12-16T10:13:53;31.27;;;13.02;;
33654;SDS011;19997;51.274;22.506;2022-12-16T10:16:44;28.95;;;12.02;;
33654;SDS011;19997;51.274;22.506;2022-12-16T10:19:36;33.30;;;12.05;;
33654;SDS011;19997;51.274;22.506;2022-12-16T10:22:31;41.60;;;14.57;;
33654;SDS011;19997;51.274;22.506;2022-12-16T10:25:20;30.02;;;11.65;;
33654;SDS011;19997;51.274;22.506;2022-12-16T10:28:14;33.83;;;13.13;;
33654;SDS011;19997;51.274;22.506;2022-12-16T10:31:12;31.42;;;11.40;;
33654;SDS011;19997;51.274;22.506;2022-12-16T10:34:00;28.60;;;11.23;;
33654;SDS011;19997;51.274;22.506;2022-12-16T10:36:45;39.33;;;14.93;;
33654;SDS011;19997;51.274;22.506;2022-12-16T10:39:32;33.78;;;12.63;;
33654;SDS011;19997;51.274;22.506;2022-12-16T10:42:20;27.02;;;11.20;;
33654;SDS011;19997;51.274;22.506;2022-12-16T10:45:12;36.53;;;12.13;;
33654;SDS011;19997;51.274;22.506;2022-12-16T10:48:02;32.05;;;12.02;;
33654;SDS011;19997;51.274;22.506;2022-12-16T10:50:49;28.33;;;11.05;;
33654;SDS011;19997;51.274;22.506;2022-12-16T10:53:33;30.25;;;11.45;;
33654;SDS011;19997;51.274;22.506;2022-12-16T10:56:31;30.75;;;11.90;;
33654;SDS011;19997;51.274;22.506;2022-12-16T10:59:32;26.15;;;10.27;;
33654;SDS011;19997;51.274;22.506;2022-12-16T11:02:18;25.58;;;10.93;;
33654;SDS011;19997;51.274;22.506;2022-12-16T11:05:28;26.17;;;10.82;;
33654;SDS011;19997;51.274;22.506;2022-12-16T11:08:25;27.17;;;12.25;;
33654;SDS011;19997;51.274;22.506;2022-12-16T11:11:12;27.30;;;11.35;;
33654;SDS011;19997;51.274;22.506;2022-12-16T11:14:14;26.48;;;10.55;;
33654;SDS011;19997;51.274;22.506;2022-12-16T11:17:14;32.58;;;11.13;;
33654;SDS011;19997;51.274;22.506;2022-12-16T11:20:09;26.75;;;10.07;;
33654;SDS011;19997;51.274;22.506;2022-12-16T11:23:07;23.02;;;10.38;;
33654;SDS011;19997;51.274;22.506;2022-12-16T11:26:04;24.63;;;10.25;;
33654;SDS011;19997;51.274;22.506;2022-12-16T11:29:03;24.35;;;10.18;;
33654;SDS011;19997;51.274;22.506;2022-12-16T11:31:58;23.33;;;10.75;;
33654;SDS011;19997;51.274;22.506;2022-12-16T11:34:48;27.10;;;10.32;;
33654;SDS011;19997;51.274;22.506;2022-12-16T11:37:37;23.35;;;10.70;;
33654;SDS011;19997;51.274;22.506;2022-12-16T11:40:23;26.08;;;11.23;;
33654;SDS011;19997;51.274;22.506;2022-12-16T11:43:10;26.38;;;11.32;;
33654;SDS011;19997;51.274;22.506;2022-12-16T11:45:58;24.80;;;10.00;;
33654;SDS011;19997;51.274;22.506;2022-12-16T11:49:05;29.80;;;10.27;;
33654;SDS011;19997;51.274;22.506;2022-12-16T11:51:58;26.20;;;10.43;;
33654;SDS011;19997;51.274;22.506;2022-12-16T11:54:49;29.40;;;11.05;;
33654;SDS011;19997;51.274;22.506;2022-12-16T11:57:42;25.00;;;10.35;;
33654;SDS011;19997;51.274;22.506;2022-12-16T12:00:32;27.15;;;9.60;;
33654;SDS011;19997;51.274;22.506;2022-12-16T12:03:19;28.52;;;11.68;;
33654;SDS011;19997;51.274;22.506;2022-12-16T12:06:10;29.60;;;11.05;;
33654;SDS011;19997;51.274;22.506;2022-12-16T12:09:03;28.05;;;10.88;;
33654;SDS011;19997;51.274;22.506;2022-12-16T12:11:54;24.63;;;9.95;;
33654;SDS011;19997;51.274;22.506;2022-12-16T12:14:42;22.25;;;10.27;;
33654;SDS011;19997;51.274;22.506;2022-12-16T12:17:37;26.83;;;10.23;;
33654;SDS011;19997;51.274;22.506;2022-12-16T12:20:33;24.00;;;9.90;;
33654;SDS011;19997;51.274;22.506;2022-12-16T12:23:28;22.65;;;8.48;;
33654;SDS011;19997;51.274;22.506;2022-12-16T12:26:23;21.75;;;9.23;;
33654;SDS011;19997;51.274;22.506;2022-12-16T12:29:13;24.03;;;9.07;;
33654;SDS011;19997;51.274;22.506;2022-12-16T12:32:04;21.25;;;9.00;;
33654;SDS011;19997;51.274;22.506;2022-12-16T12:35:00;21.85;;;9.02;;
33654;SDS011;19997;51.274;22.506;2022-12-16T12:37:53;21.38;;;8.88;;
33654;SDS011;19997;51.274;22.506;2022-12-16T12:40:46;20.02;;;8.48;;
33654;SDS011;19997;51.274;22.506;2022-12-16T12:43:39;22.70;;;9.15;;
33654;SDS011;19997;51.274;22.506;2022-12-16T12:46:36;20.10;;;7.95;;
33654;SDS011;19997;51.274;22.506;2022-12-16T12:49:28;20.88;;;8.82;;
33654;SDS011;19997;51.274;22.506;2022-12-16T12:52:35;19.63;;;8.30;;
33654;SDS011;19997;51.274;22.506;2022-12-16T12:55:39;20.85;;;8.85;;
33654;SDS011;19997;51.274;22.506;2022-12-16T12:58:27;21.80;;;9.40;;
33654;SDS011;19997;51.274;22.506;2022-12-16T13:01:14;22.70;;;9.15;;
33654;SDS011;19997;51.274;22.506;2022-12-16T13:04:02;23.52;;;9.75;;
33654;SDS011;19997;51.274;22.506;2022-12-16T13:09:38;20.52;;;9.43;;
33654;SDS011;19997;51.274;22.506;2022-12-16T13:12:32;17.55;;;9.13;;
33654;SDS011;19997;51.274;22.506;2022-12-16T13:15:18;20.98;;;9.30;;
33654;SDS011;19997;51.274;22.506;2022-12-16T13:18:25;17.70;;;8.65;;
33654;SDS011;19997;51.274;22.506;2022-12-16T13:24:31;23.50;;;9.40;;
33654;SDS011;19997;51.274;22.506;2022-12-16T13:27:23;20.80;;;8.23;;
33654;SDS011;19997;51.274;22.506;2022-12-16T13:30:20;22.95;;;10.10;;
33654;SDS011;19997;51.274;22.506;2022-12-16T13:33:07;20.65;;;9.35;;
33654;SDS011;19997;51.274;22.506;2022-12-16T13:36:23;21.45;;;8.25;;
33654;SDS011;19997;51.274;22.506;2022-12-16T13:39:19;19.98;;;9.15;;
33654;SDS011;19997;51.274;22.506;2022-12-16T13:42:29;14.83;;;7.07;;
33654;SDS011;19997;51.274;22.506;2022-12-16T13:45:16;18.38;;;8.27;;
33654;SDS011;19997;51.274;22.506;2022-12-16T13:48:26;19.23;;;8.43;;
33654;SDS011;19997;51.274;22.506;2022-12-16T13:54:45;23.38;;;10.38;;
33654;SDS011;19997;51.274;22.506;2022-12-16T13:57:41;24.60;;;9.32;;
33654;SDS011;19997;51.274;22.506;2022-12-16T14:00:28;25.88;;;9.68;;
33654;SDS011;19997;51.274;22.506;2022-12-16T14:03:17;24.50;;;9.30;;
33654;SDS011;19997;51.274;22.506;2022-12-16T14:06:06;18.80;;;9.70;;
33654;SDS011;19997;51.274;22.506;2022-12-16T14:08:55;24.95;;;10.55;;
33654;SDS011;19997;51.274;22.506;2022-12-16T14:11:42;23.90;;;10.50;;
33654;SDS011;19997;51.274;22.506;2022-12-16T14:14:34;24.10;;;9.68;;
33654;SDS011;19997;51.274;22.506;2022-12-16T14:17:28;26.42;;;10.10;;
33654;SDS011;19997;51.274;22.506;2022-12-16T14:20:18;23.42;;;10.43;;
33654;SDS011;19997;51.274;22.506;2022-12-16T14:23:11;25.15;;;10.02;;
33654;SDS011;19997;51.274;22.506;2022-12-16T14:28:54;21.63;;;8.07;;
33654;SDS011;19997;51.274;22.506;2022-12-16T14:31:48;19.27;;;8.80;;
33654;SDS011;19997;51.274;22.506;2022-12-16T14:34:33;20.17;;;7.40;;
33654;SDS011;19997;51.274;22.506;2022-12-16T14:37:35;22.45;;;8.52;;
33654;SDS011;19997;51.274;22.506;2022-12-16T14:40:22;22.65;;;7.57;;
33654;SDS011;19997;51.274;22.506;2022-12-16T14:43:11;21.23;;;8.38;;
33654;SDS011;19997;51.274;22.506;2022-12-16T14:45:58;22.17;;;8.38;;
33654;SDS011;19997;51.274;22.506;2022-12-16T14:48:45;22.50;;;9.80;;
33654;SDS011;19997;51.274;22.506;2022-12-16T14:51:34;18.35;;;7.93;;
33654;SDS011;19997;51.274;22.506;2022-12-16T14:54:21;16.23;;;7.45;;
33654;SDS011;19997;51.274;22.506;2022-12-16T14:57:11;22.67;;;8.68;;
33654;SDS011;19997;51.274;22.506;2022-12-16T14:59:58;19.60;;;8.75;;
33654;SDS011;19997;51.274;22.506;2022-12-16T15:02:44;20.17;;;8.73;;
33654;SDS011;19997;51.274;22.506;2022-12-16T15:05:33;23.27;;;8.52;;
33654;SDS011;19997;51.274;22.506;2022-12-16T15:08:20;20.30;;;9.63;;
33654;SDS011;19997;51.274;22.506;2022-12-16T15:11:05;32.03;;;11.40;;
33654;SDS011;19997;51.274;22.506;2022-12-16T15:13:55;24.23;;;10.38;;
33654;SDS011;19997;51.274;22.506;2022-12-16T15:16:53;24.35;;;9.70;;
33654;SDS011;19997;51.274;22.506;2022-12-16T15:19:37;19.13;;;9.02;;
33654;SDS011;19997;51.274;22.506;2022-12-16T15:22:27;26.02;;;9.73;;
33654;SDS011;19997;51.274;22.506;2022-12-16T15:25:19;26.13;;;10.00;;
33654;SDS011;19997;51.274;22.506;2022-12-16T15:28:18;25.55;;;10.77;;
33654;SDS011;19997;51.274;22.506;2022-12-16T15:31:11;27.38;;;11.18;;
33654;SDS011;19997;51.274;22.506;2022-12-16T15:37:17;22.40;;;9.20;;
33654;SDS011;19997;51.274;22.506;2022-12-16T15:40:23;22.20;;;9.13;;
33654;SDS011;19997;51.274;22.506;2022-12-16T15:43:19;20.65;;;8.82;;
33654;SDS011;19997;51.274;22.506;2022-12-16T15:46:16;24.63;;;9.15;;
33654;SDS011;19997;51.274;22.506;2022-12-16T15:49:03;22.90;;;9.95;;
33654;SDS011;19997;51.274;22.506;2022-12-16T15:51:48;22.75;;;9.82;;
33654;SDS011;19997;51.274;22.506;2022-12-16T15:54:47;25.65;;;10.38;;
33654;SDS011;19997;51.274;22.506;2022-12-16T15:57:34;24.05;;;8.95;;
33654;SDS011;19997;51.274;22.506;2022-12-16T16:00:21;21.33;;;9.40;;
33654;SDS011;19997;51.274;22.506;2022-12-16T16:03:04;40.63;;;10.20;;
33654;SDS011;19997;51.274;22.506;2022-12-16T16:05:59;24.23;;;9.68;;
33654;SDS011;19997;51.274;22.506;2022-12-16T16:08:43;25.30;;;10.27;;
33654;SDS011;19997;51.274;22.506;2022-12-16T16:11:32;25.15;;;10.75;;
33654;SDS011;19997;51.274;22.506;2022-12-16T16:14:18;24.90;;;9.57;;